Awatea — ZGCA6 — position and weather

sailwx.info

Track history (hours):
 
Tides and Currents Weather Stations Pressure Air Temp Water Temp Dewpoint Dewpoint Depression Visibility Wind Speed Wind Dir Waves Ship Positions

Awatea

Last reported at 2018-Jul-18 10:29 UTC. Time now 2018-Jul-19 21:23 UTC.
Position N 38°20' E 015°43'.

Length 45 m; draft 2.8 m.

MMSI: 319011900.

Date/timePositionNaut miles runAvg speedWind from/ knotsBaromVisibWave heightAir tempDewpointWater temp
2018-Jul-18 10:29N 38°20' E 015°43'5 8.7
2018-Jul-18 09:54N 38°15' E 015°40'3 8.3
2018-Jul-18 09:29N 38°13' E 015°37'4 9.0
2018-Jul-18 09:00N 38°08' E 015°36'5 9.4
2018-Jul-18 08:29N 38°04' E 015°33'  
2018-Jul-10 12:10N 38°10' E 015°35'211.0
2018-Jul-10 11:59N 38°12' E 015°36'119 3.0
2018-Jul-08 19:34N 40°01' E 014°33'110.9
2018-Jul-08 19:28N 40°02' E 014°33'710.8
2018-Jul-08 18:49N 40°09' E 014°29'310.8
2018-Jul-08 18:30N 40°12' E 014°27'610.7
2018-Jul-08 17:59N 40°17' E 014°24'510.7
2018-Jul-08 17:30N 40°22' E 014°22'611.0
2018-Jul-08 16:59N 40°27' E 014°19'511.1
2018-Jul-08 16:30N 40°32' E 014°16'1 1.6
2018-Jul-08 16:00N 40°33' E 014°15'1 0.3
2018-Jul-08 14:30N 40°33' E 014°15'0 0.1
2018-Jul-08 13:51N 40°33' E 014°15'0 0.0
2018-Jul-08 13:30N 40°33' E 014°15'  
Track history (hours):
 
Tides and Currents Weather Stations Pressure Air Temp Water Temp Dewpoint Dewpoint Depression Visibility Wind Speed Wind Dir Waves Ship Positions

Awatea

Last reported at 2018-Jul-18 10:29 UTC. Time now 2018-Jul-19 21:23 UTC.
Position N 38°20' E 015°43'.

Length 45 m; draft 2.8 m.

MMSI: 319011900.

Date/timePositionNaut miles runAvg speedWind from/ knotsBaromVisibWave heightAir tempDewpointWater temp
2018-Jul-18 10:29N 38°20' E 015°43'5 8.7
2018-Jul-18 09:54N 38°15' E 015°40'3 8.3
2018-Jul-18 09:29N 38°13' E 015°37'4 9.0
2018-Jul-18 09:00N 38°08' E 015°36'5 9.4
2018-Jul-18 08:29N 38°04' E 015°33'  
2018-Jul-10 12:10N 38°10' E 015°35'211.0
2018-Jul-10 11:59N 38°12' E 015°36'119 3.0
2018-Jul-08 19:34N 40°01' E 014°33'110.9
2018-Jul-08 19:28N 40°02' E 014°33'710.8
2018-Jul-08 18:49N 40°09' E 014°29'310.8
2018-Jul-08 18:30N 40°12' E 014°27'610.7
2018-Jul-08 17:59N 40°17' E 014°24'510.7
2018-Jul-08 17:30N 40°22' E 014°22'611.0
2018-Jul-08 16:59N 40°27' E 014°19'511.1
2018-Jul-08 16:30N 40°32' E 014°16'1 1.6
2018-Jul-08 16:00N 40°33' E 014°15'1 0.3
2018-Jul-08 14:30N 40°33' E 014°15'0 0.1
2018-Jul-08 13:51N 40°33' E 014°15'0 0.0
2018-Jul-08 13:30N 40°33' E 014°15'  

Dump ship's entire track history